sensor_id;sensor_type;location;lat;lon;timestamp;P1;durP1;ratioP1;P2;durP2;ratioP2
54328;SDS011;40710;51.120;13.136;2022-08-21T00:01:30;13.68;;;9.23;;
54328;SDS011;40710;51.120;13.136;2022-08-21T00:03:55;12.50;;;9.40;;
54328;SDS011;40710;51.120;13.136;2022-08-21T00:06:20;13.10;;;8.88;;
54328;SDS011;40710;51.120;13.136;2022-08-21T00:08:45;12.23;;;9.23;;
54328;SDS011;40710;51.120;13.136;2022-08-21T00:11:10;12.93;;;9.27;;
54328;SDS011;40710;51.120;13.136;2022-08-21T00:13:35;13.05;;;9.10;;
54328;SDS011;40710;51.120;13.136;2022-08-21T00:15:59;11.55;;;8.98;;
54328;SDS011;40710;51.120;13.136;2022-08-21T00:18:24;12.80;;;9.38;;
54328;SDS011;40710;51.120;13.136;2022-08-21T00:20:49;15.98;;;9.68;;
54328;SDS011;40710;51.120;13.136;2022-08-21T00:23:14;12.95;;;9.60;;
54328;SDS011;40710;51.120;13.136;2022-08-21T00:25:40;12.82;;;9.43;;
54328;SDS011;40710;51.120;13.136;2022-08-21T00:28:05;13.43;;;9.50;;
54328;SDS011;40710;51.120;13.136;2022-08-21T00:30:30;12.75;;;9.48;;
54328;SDS011;40710;51.120;13.136;2022-08-21T00:32:55;13.10;;;9.25;;
54328;SDS011;40710;51.120;13.136;2022-08-21T00:35:22;12.13;;;9.15;;
54328;SDS011;40710;51.120;13.136;2022-08-21T00:37:49;13.80;;;10.43;;
54328;SDS011;40710;51.120;13.136;2022-08-21T00:40:15;13.23;;;9.77;;
54328;SDS011;40710;51.120;13.136;2022-08-21T00:42:42;16.15;;;10.57;;
54328;SDS011;40710;51.120;13.136;2022-08-21T00:45:07;17.58;;;10.45;;
54328;SDS011;40710;51.120;13.136;2022-08-21T00:47:32;14.88;;;10.35;;
54328;SDS011;40710;51.120;13.136;2022-08-21T00:49:57;13.20;;;10.32;;
54328;SDS011;40710;51.120;13.136;2022-08-21T00:52:24;15.32;;;11.38;;
54328;SDS011;40710;51.120;13.136;2022-08-21T00:54:51;16.20;;;10.32;;
54328;SDS011;40710;51.120;13.136;2022-08-21T00:57:22;15.95;;;10.55;;
54328;SDS011;40710;51.120;13.136;2022-08-21T00:59:51;16.17;;;10.95;;
54328;SDS011;40710;51.120;13.136;2022-08-21T01:02:19;13.95;;;10.02;;
54328;SDS011;40710;51.120;13.136;2022-08-21T01:04:44;14.68;;;10.50;;
54328;SDS011;40710;51.120;13.136;2022-08-21T01:07:09;15.20;;;10.57;;
54328;SDS011;40710;51.120;13.136;2022-08-21T01:09:33;14.75;;;11.23;;
54328;SDS011;40710;51.120;13.136;2022-08-21T01:11:58;14.95;;;11.10;;
54328;SDS011;40710;51.120;13.136;2022-08-21T01:14:22;18.83;;;10.90;;
54328;SDS011;40710;51.120;13.136;2022-08-21T01:16:48;17.52;;;11.32;;
54328;SDS011;40710;51.120;13.136;2022-08-21T01:19:15;18.40;;;12.10;;
54328;SDS011;40710;51.120;13.136;2022-08-21T01:21:41;16.67;;;10.35;;
54328;SDS011;40710;51.120;13.136;2022-08-21T01:24:05;17.30;;;11.73;;
54328;SDS011;40710;51.120;13.136;2022-08-21T01:26:31;17.10;;;12.07;;
54328;SDS011;40710;51.120;13.136;2022-08-21T01:29:00;15.75;;;11.38;;
54328;SDS011;40710;51.120;13.136;2022-08-21T01:31:29;16.40;;;11.88;;
54328;SDS011;40710;51.120;13.136;2022-08-21T01:33:54;19.55;;;11.95;;
54328;SDS011;40710;51.120;13.136;2022-08-21T01:36:20;19.33;;;11.73;;
54328;SDS011;40710;51.120;13.136;2022-08-21T01:38:44;20.33;;;12.90;;
54328;SDS011;40710;51.120;13.136;2022-08-21T01:41:09;18.13;;;12.75;;
54328;SDS011;40710;51.120;13.136;2022-08-21T01:43:33;17.05;;;12.00;;
54328;SDS011;40710;51.120;13.136;2022-08-21T01:45:57;18.00;;;12.48;;
54328;SDS011;40710;51.120;13.136;2022-08-21T01:48:22;18.60;;;12.65;;
54328;SDS011;40710;51.120;13.136;2022-08-21T01:50:46;20.80;;;11.90;;
54328;SDS011;40710;51.120;13.136;2022-08-21T01:53:11;18.60;;;12.45;;
54328;SDS011;40710;51.120;13.136;2022-08-21T01:55:35;17.60;;;12.13;;
54328;SDS011;40710;51.120;13.136;2022-08-21T01:57:59;17.85;;;12.25;;
54328;SDS011;40710;51.120;13.136;2022-08-21T02:00:24;18.60;;;12.10;;
54328;SDS011;40710;51.120;13.136;2022-08-21T02:02:49;17.85;;;12.52;;
54328;SDS011;40710;51.120;13.136;2022-08-21T02:05:15;15.65;;;11.10;;
54328;SDS011;40710;51.120;13.136;2022-08-21T02:07:41;18.40;;;12.45;;
54328;SDS011;40710;51.120;13.136;2022-08-21T02:10:08;19.50;;;12.68;;
54328;SDS011;40710;51.120;13.136;2022-08-21T02:12:34;16.17;;;12.30;;
54328;SDS011;40710;51.120;13.136;2022-08-21T02:14:59;18.88;;;12.80;;
54328;SDS011;40710;51.120;13.136;2022-08-21T02:17:24;20.45;;;14.32;;
54328;SDS011;40710;51.120;13.136;2022-08-21T02:19:48;19.30;;;13.07;;
54328;SDS011;40710;51.120;13.136;2022-08-21T02:22:13;19.95;;;12.38;;
54328;SDS011;40710;51.120;13.136;2022-08-21T02:24:38;18.85;;;12.80;;
54328;SDS011;40710;51.120;13.136;2022-08-21T02:27:02;18.65;;;12.35;;
54328;SDS011;40710;51.120;13.136;2022-08-21T02:29:27;19.30;;;12.50;;
54328;SDS011;40710;51.120;13.136;2022-08-21T02:31:51;17.67;;;11.35;;
54328;SDS011;40710;51.120;13.136;2022-08-21T02:34:17;21.67;;;13.68;;
54328;SDS011;40710;51.120;13.136;2022-08-21T02:36:41;18.67;;;13.23;;
54328;SDS011;40710;51.120;13.136;2022-08-21T02:39:05;17.60;;;12.43;;
54328;SDS011;40710;51.120;13.136;2022-08-21T02:41:30;25.52;;;12.48;;
54328;SDS011;40710;51.120;13.136;2022-08-21T02:43:55;17.48;;;12.23;;
54328;SDS011;40710;51.120;13.136;2022-08-21T02:46:19;17.65;;;11.60;;
54328;SDS011;40710;51.120;13.136;2022-08-21T02:48:45;17.33;;;11.38;;
54328;SDS011;40710;51.120;13.136;2022-08-21T02:51:11;15.75;;;11.48;;
54328;SDS011;40710;51.120;13.136;2022-08-21T02:53:42;14.65;;;11.02;;
54328;SDS011;40710;51.120;13.136;2022-08-21T02:56:08;14.60;;;10.40;;
54328;SDS011;40710;51.120;13.136;2022-08-21T02:58:35;13.77;;;9.38;;
54328;SDS011;40710;51.120;13.136;2022-08-21T03:01:02;16.13;;;11.00;;
54328;SDS011;40710;51.120;13.136;2022-08-21T03:03:27;13.75;;;10.73;;
54328;SDS011;40710;51.120;13.136;2022-08-21T03:05:53;13.38;;;8.65;;
54328;SDS011;40710;51.120;13.136;2022-08-21T03:08:18;13.32;;;9.55;;
54328;SDS011;40710;51.120;13.136;2022-08-21T03:10:46;13.07;;;8.98;;
54328;SDS011;40710;51.120;13.136;2022-08-21T03:13:12;13.38;;;9.27;;
54328;SDS011;40710;51.120;13.136;2022-08-21T03:15:37;13.02;;;9.65;;
54328;SDS011;40710;51.120;13.136;2022-08-21T03:18:02;12.98;;;8.88;;
54328;SDS011;40710;51.120;13.136;2022-08-21T03:20:27;11.30;;;8.27;;
54328;SDS011;40710;51.120;13.136;2022-08-21T03:22:53;11.27;;;8.48;;
54328;SDS011;40710;51.120;13.136;2022-08-21T03:25:19;14.25;;;8.30;;
54328;SDS011;40710;51.120;13.136;2022-08-21T03:27:45;13.80;;;7.60;;
54328;SDS011;40710;51.120;13.136;2022-08-21T03:30:09;11.10;;;7.82;;
54328;SDS011;40710;51.120;13.136;2022-08-21T03:32:34;10.75;;;7.15;;
54328;SDS011;40710;51.120;13.136;2022-08-21T03:35:00;10.23;;;7.10;;
54328;SDS011;40710;51.120;13.136;2022-08-21T03:37:24;10.55;;;7.25;;
54328;SDS011;40710;51.120;13.136;2022-08-21T03:39:48;10.80;;;7.78;;
54328;SDS011;40710;51.120;13.136;2022-08-21T03:42:13;10.40;;;7.60;;
54328;SDS011;40710;51.120;13.136;2022-08-21T03:44:37;8.48;;;6.30;;
54328;SDS011;40710;51.120;13.136;2022-08-21T03:47:03;10.38;;;5.97;;
54328;SDS011;40710;51.120;13.136;2022-08-21T03:49:28;8.05;;;6.35;;
54328;SDS011;40710;51.120;13.136;2022-08-21T03:51:52;11.45;;;6.53;;
54328;SDS011;40710;51.120;13.136;2022-08-21T03:54:17;11.57;;;7.82;;
54328;SDS011;40710;51.120;13.136;2022-08-21T03:56:43;9.98;;;6.90;;
54328;SDS011;40710;51.120;13.136;2022-08-21T03:59:07;10.07;;;6.65;;
54328;SDS011;40710;51.120;13.136;2022-08-21T04:01:32;10.88;;;6.85;;
54328;SDS011;40710;51.120;13.136;2022-08-21T04:03:56;11.98;;;7.40;;
54328;SDS011;40710;51.120;13.136;2022-08-21T04:06:21;8.95;;;6.68;;
54328;SDS011;40710;51.120;13.136;2022-08-21T04:08:45;10.88;;;6.82;;
54328;SDS011;40710;51.120;13.136;2022-08-21T04:11:10;9.60;;;6.15;;
54328;SDS011;40710;51.120;13.136;2022-08-21T04:13:34;13.07;;;7.35;;
54328;SDS011;40710;51.120;13.136;2022-08-21T04:15:59;9.32;;;6.55;;
54328;SDS011;40710;51.120;13.136;2022-08-21T04:18:23;10.15;;;6.90;;
54328;SDS011;40710;51.120;13.136;2022-08-21T04:20:49;10.05;;;7.57;;
54328;SDS011;40710;51.120;13.136;2022-08-21T04:23:15;11.85;;;7.80;;
54328;SDS011;40710;51.120;13.136;2022-08-21T04:25:40;10.30;;;6.63;;
54328;SDS011;40710;51.120;13.136;2022-08-21T04:28:04;10.85;;;7.53;;
54328;SDS011;40710;51.120;13.136;2022-08-21T04:30:29;10.55;;;7.03;;
54328;SDS011;40710;51.120;13.136;2022-08-21T04:32:53;20.25;;;8.13;;
54328;SDS011;40710;51.120;13.136;2022-08-21T04:35:19;10.68;;;7.03;;
54328;SDS011;40710;51.120;13.136;2022-08-21T04:37:46;12.30;;;7.50;;
54328;SDS011;40710;51.120;13.136;2022-08-21T04:40:11;12.52;;;7.85;;
54328;SDS011;40710;51.120;13.136;2022-08-21T04:42:48;9.82;;;7.07;;
54328;SDS011;40710;51.120;13.136;2022-08-21T04:45:28;11.15;;;7.75;;
54328;SDS011;40710;51.120;13.136;2022-08-21T04:47:57;11.48;;;6.95;;
54328;SDS011;40710;51.120;13.136;2022-08-21T04:50:24;11.95;;;7.70;;
54328;SDS011;40710;51.120;13.136;2022-08-21T04:52:54;11.88;;;7.85;;
54328;SDS011;40710;51.120;13.136;2022-08-21T04:55:19;12.75;;;7.55;;
54328;SDS011;40710;51.120;13.136;2022-08-21T04:57:44;11.88;;;7.03;;
54328;SDS011;40710;51.120;13.136;2022-08-21T05:00:09;11.85;;;7.50;;
54328;SDS011;40710;51.120;13.136;2022-08-21T05:02:36;13.75;;;7.93;;
54328;SDS011;40710;51.120;13.136;2022-08-21T05:05:01;14.45;;;7.40;;
54328;SDS011;40710;51.120;13.136;2022-08-21T05:07:27;10.65;;;7.28;;
54328;SDS011;40710;51.120;13.136;2022-08-21T05:09:54;11.15;;;7.43;;
54328;SDS011;40710;51.120;13.136;2022-08-21T05:12:18;10.10;;;6.82;;
54328;SDS011;40710;51.120;13.136;2022-08-21T05:14:42;10.82;;;6.95;;
54328;SDS011;40710;51.120;13.136;2022-08-21T05:17:07;10.18;;;6.65;;
54328;SDS011;40710;51.120;13.136;2022-08-21T05:19:32;9.65;;;6.47;;
54328;SDS011;40710;51.120;13.136;2022-08-21T05:21:57;8.73;;;6.22;;
54328;SDS011;40710;51.120;13.136;2022-08-21T05:24:22;11.95;;;6.88;;
54328;SDS011;40710;51.120;13.136;2022-08-21T05:26:46;10.52;;;6.70;;
54328;SDS011;40710;51.120;13.136;2022-08-21T05:29:11;10.15;;;6.82;;
54328;SDS011;40710;51.120;13.136;2022-08-21T05:31:36;9.63;;;6.60;;
54328;SDS011;40710;51.120;13.136;2022-08-21T05:34:01;11.52;;;7.00;;
54328;SDS011;40710;51.120;13.136;2022-08-21T05:36:26;10.23;;;6.28;;
54328;SDS011;40710;51.120;13.136;2022-08-21T05:38:50;11.25;;;6.25;;
54328;SDS011;40710;51.120;13.136;2022-08-21T05:41:14;9.50;;;5.93;;
54328;SDS011;40710;51.120;13.136;2022-08-21T05:43:39;9.43;;;5.85;;
54328;SDS011;40710;51.120;13.136;2022-08-21T05:46:04;12.38;;;6.60;;
54328;SDS011;40710;51.120;13.136;2022-08-21T05:48:29;10.45;;;6.10;;
54328;SDS011;40710;51.120;13.136;2022-08-21T05:50:53;7.22;;;5.65;;
54328;SDS011;40710;51.120;13.136;2022-08-21T05:53:19;21.63;;;7.65;;
54328;SDS011;40710;51.120;13.136;2022-08-21T05:55:45;8.70;;;5.85;;
54328;SDS011;40710;51.120;13.136;2022-08-21T05:58:11;12.05;;;6.35;;
54328;SDS011;40710;51.120;13.136;2022-08-21T06:00:40;7.05;;;4.93;;
54328;SDS011;40710;51.120;13.136;2022-08-21T06:03:09;9.00;;;5.32;;
54328;SDS011;40710;51.120;13.136;2022-08-21T06:05:35;6.80;;;4.88;;
54328;SDS011;40710;51.120;13.136;2022-08-21T06:07:59;7.53;;;4.38;;
54328;SDS011;40710;51.120;13.136;2022-08-21T06:10:23;7.28;;;4.80;;
54328;SDS011;40710;51.120;13.136;2022-08-21T06:12:52;8.18;;;5.32;;
54328;SDS011;40710;51.120;13.136;2022-08-21T06:15:18;5.72;;;3.92;;
54328;SDS011;40710;51.120;13.136;2022-08-21T06:17:42;6.80;;;3.90;;
54328;SDS011;40710;51.120;13.136;2022-08-21T06:20:07;6.78;;;5.18;;
54328;SDS011;40710;51.120;13.136;2022-08-21T06:22:31;5.25;;;3.33;;
54328;SDS011;40710;51.120;13.136;2022-08-21T06:24:56;7.55;;;3.70;;
54328;SDS011;40710;51.120;13.136;2022-08-21T06:27:20;6.00;;;4.00;;
54328;SDS011;40710;51.120;13.136;2022-08-21T06:29:45;6.07;;;3.95;;
54328;SDS011;40710;51.120;13.136;2022-08-21T06:32:10;5.88;;;3.17;;
54328;SDS011;40710;51.120;13.136;2022-08-21T06:34:36;5.60;;;3.40;;
54328;SDS011;40710;51.120;13.136;2022-08-21T06:37:04;5.25;;;3.35;;
54328;SDS011;40710;51.120;13.136;2022-08-21T06:39:29;5.47;;;3.33;;
54328;SDS011;40710;51.120;13.136;2022-08-21T06:41:53;5.72;;;3.05;;
54328;SDS011;40710;51.120;13.136;2022-08-21T06:44:19;5.38;;;3.15;;
54328;SDS011;40710;51.120;13.136;2022-08-21T06:46:43;5.80;;;3.13;;
54328;SDS011;40710;51.120;13.136;2022-08-21T06:49:07;7.03;;;3.53;;
54328;SDS011;40710;51.120;13.136;2022-08-21T06:51:32;6.90;;;3.70;;
54328;SDS011;40710;51.120;13.136;2022-08-21T06:53:56;7.38;;;3.40;;
54328;SDS011;40710;51.120;13.136;2022-08-21T06:56:21;6.78;;;4.13;;
54328;SDS011;40710;51.120;13.136;2022-08-21T06:58:45;5.60;;;3.30;;
54328;SDS011;40710;51.120;13.136;2022-08-21T07:01:10;9.20;;;3.10;;
54328;SDS011;40710;51.120;13.136;2022-08-21T07:03:36;7.38;;;3.55;;
54328;SDS011;40710;51.120;13.136;2022-08-21T07:06:05;6.00;;;3.40;;
54328;SDS011;40710;51.120;13.136;2022-08-21T07:08:31;5.45;;;3.60;;
54328;SDS011;40710;51.120;13.136;2022-08-21T07:10:56;8.82;;;6.45;;
54328;SDS011;40710;51.120;13.136;2022-08-21T07:13:22;15.02;;;11.23;;
54328;SDS011;40710;51.120;13.136;2022-08-21T07:15:47;12.02;;;5.63;;
54328;SDS011;40710;51.120;13.136;2022-08-21T07:18:12;7.00;;;3.63;;
54328;SDS011;40710;51.120;13.136;2022-08-21T07:20:37;5.65;;;3.95;;
54328;SDS011;40710;51.120;13.136;2022-08-21T07:23:03;6.22;;;3.28;;
54328;SDS011;40710;51.120;13.136;2022-08-21T07:25:30;8.13;;;3.30;;
54328;SDS011;40710;51.120;13.136;2022-08-21T07:27:55;5.28;;;3.10;;
54328;SDS011;40710;51.120;13.136;2022-08-21T07:30:19;5.95;;;3.47;;
54328;SDS011;40710;51.120;13.136;2022-08-21T07:32:44;6.90;;;3.40;;
54328;SDS011;40710;51.120;13.136;2022-08-21T07:35:08;6.40;;;3.25;;
54328;SDS011;40710;51.120;13.136;2022-08-21T07:37:33;6.03;;;3.20;;
54328;SDS011;40710;51.120;13.136;2022-08-21T07:39:57;6.60;;;3.00;;
54328;SDS011;40710;51.120;13.136;2022-08-21T07:42:22;6.75;;;3.30;;
54328;SDS011;40710;51.120;13.136;2022-08-21T07:44:46;6.47;;;3.53;;
54328;SDS011;40710;51.120;13.136;2022-08-21T07:47:11;5.43;;;2.80;;
54328;SDS011;40710;51.120;13.136;2022-08-21T07:49:35;5.57;;;3.47;;
54328;SDS011;40710;51.120;13.136;2022-08-21T07:52:00;6.05;;;2.95;;
54328;SDS011;40710;51.120;13.136;2022-08-21T07:54:25;20.70;;;4.15;;
54328;SDS011;40710;51.120;13.136;2022-08-21T07:56:50;5.90;;;2.83;;
54328;SDS011;40710;51.120;13.136;2022-08-21T07:59:14;6.28;;;3.10;;
54328;SDS011;40710;51.120;13.136;2022-08-21T08:01:39;6.75;;;3.33;;
54328;SDS011;40710;51.120;13.136;2022-08-21T08:04:03;7.55;;;3.55;;
54328;SDS011;40710;51.120;13.136;2022-08-21T08:06:28;6.45;;;3.20;;
54328;SDS011;40710;51.120;13.136;2022-08-21T08:08:52;5.30;;;2.63;;
54328;SDS011;40710;51.120;13.136;2022-08-21T08:11:17;4.95;;;3.13;;
54328;SDS011;40710;51.120;13.136;2022-08-21T08:13:42;4.88;;;2.78;;
54328;SDS011;40710;51.120;13.136;2022-08-21T08:16:12;7.00;;;3.22;;
54328;SDS011;40710;51.120;13.136;2022-08-21T08:18:37;9.95;;;6.70;;
54328;SDS011;40710;51.120;13.136;2022-08-21T08:21:02;6.28;;;3.75;;
54328;SDS011;40710;51.120;13.136;2022-08-21T08:23:27;6.65;;;3.03;;
54328;SDS011;40710;51.120;13.136;2022-08-21T08:25:51;5.20;;;2.67;;
54328;SDS011;40710;51.120;13.136;2022-08-21T08:28:16;4.20;;;2.45;;
54328;SDS011;40710;51.120;13.136;2022-08-21T08:30:40;5.03;;;2.63;;
54328;SDS011;40710;51.120;13.136;2022-08-21T08:33:06;6.47;;;3.05;;
54328;SDS011;40710;51.120;13.136;2022-08-21T08:35:31;6.68;;;2.85;;
54328;SDS011;40710;51.120;13.136;2022-08-21T08:37:55;5.57;;;2.78;;
54328;SDS011;40710;51.120;13.136;2022-08-21T08:40:22;5.32;;;2.50;;
54328;SDS011;40710;51.120;13.136;2022-08-21T08:42:56;7.85;;;2.65;;
54328;SDS011;40710;51.120;13.136;2022-08-21T08:45:21;4.03;;;2.33;;
54328;SDS011;40710;51.120;13.136;2022-08-21T08:47:50;5.65;;;2.67;;
54328;SDS011;40710;51.120;13.136;2022-08-21T08:50:23;4.75;;;2.45;;
54328;SDS011;40710;51.120;13.136;2022-08-21T08:52:54;4.97;;;2.10;;
54328;SDS011;40710;51.120;13.136;2022-08-21T08:55:26;5.03;;;1.90;;
54328;SDS011;40710;51.120;13.136;2022-08-21T08:57:57;4.30;;;1.60;;
54328;SDS011;40710;51.120;13.136;2022-08-21T09:00:22;5.13;;;1.80;;
54328;SDS011;40710;51.120;13.136;2022-08-21T09:02:48;2.88;;;1.38;;
54328;SDS011;40710;51.120;13.136;2022-08-21T09:05:19;3.28;;;1.30;;
54328;SDS011;40710;51.120;13.136;2022-08-21T09:07:53;5.22;;;1.58;;
54328;SDS011;40710;51.120;13.136;2022-08-21T09:15:44;4.53;;;1.60;;
54328;SDS011;40710;51.120;13.136;2022-08-21T09:24:01;4.03;;;1.58;;
54328;SDS011;40710;51.120;13.136;2022-08-21T09:26:44;3.50;;;1.40;;
54328;SDS011;40710;51.120;13.136;2022-08-21T09:29:17;3.53;;;1.52;;
54328;SDS011;40710;51.120;13.136;2022-08-21T09:31:47;3.03;;;1.58;;
54328;SDS011;40710;51.120;13.136;2022-08-21T09:34:11;3.83;;;1.80;;
54328;SDS011;40710;51.120;13.136;2022-08-21T09:36:39;5.45;;;2.00;;
54328;SDS011;40710;51.120;13.136;2022-08-21T09:39:07;5.18;;;2.08;;
54328;SDS011;40710;51.120;13.136;2022-08-21T09:41:33;2.90;;;1.63;;
54328;SDS011;40710;51.120;13.136;2022-08-21T09:43:59;3.58;;;1.60;;
54328;SDS011;40710;51.120;13.136;2022-08-21T09:46:24;4.40;;;1.90;;
54328;SDS011;40710;51.120;13.136;2022-08-21T09:48:51;5.50;;;1.80;;
54328;SDS011;40710;51.120;13.136;2022-08-21T09:51:19;5.57;;;1.70;;
54328;SDS011;40710;51.120;13.136;2022-08-21T09:53:48;4.43;;;1.48;;
54328;SDS011;40710;51.120;13.136;2022-08-21T09:56:18;3.92;;;1.38;;
54328;SDS011;40710;51.120;13.136;2022-08-21T09:59:30;3.92;;;1.45;;
54328;SDS011;40710;51.120;13.136;2022-08-21T10:01:56;3.28;;;1.30;;
54328;SDS011;40710;51.120;13.136;2022-08-21T10:04:33;2.85;;;1.10;;
54328;SDS011;40710;51.120;13.136;2022-08-21T10:07:08;3.20;;;1.35;;
54328;SDS011;40710;51.120;13.136;2022-08-21T10:09:34;6.55;;;3.95;;
54328;SDS011;40710;51.120;13.136;2022-08-21T10:12:06;16.83;;;11.60;;
54328;SDS011;40710;51.120;13.136;2022-08-21T10:17:36;3.75;;;0.90;;
54328;SDS011;40710;51.120;13.136;2022-08-21T10:20:09;2.72;;;1.10;;
54328;SDS011;40710;51.120;13.136;2022-08-21T10:22:47;1.30;;;0.77;;
54328;SDS011;40710;51.120;13.136;2022-08-21T10:25:19;3.05;;;1.17;;
54328;SDS011;40710;51.120;13.136;2022-08-21T10:27:51;3.30;;;1.10;;
54328;SDS011;40710;51.120;13.136;2022-08-21T10:30:36;3.58;;;1.42;;
54328;SDS011;40710;51.120;13.136;2022-08-21T10:33:22;4.90;;;1.20;;
54328;SDS011;40710;51.120;13.136;2022-08-21T10:36:09;2.83;;;1.15;;
54328;SDS011;40710;51.120;13.136;2022-08-21T10:38:58;3.13;;;1.20;;
54328;SDS011;40710;51.120;13.136;2022-08-21T10:44:28;2.53;;;0.85;;
54328;SDS011;40710;51.120;13.136;2022-08-21T10:47:02;1.55;;;0.90;;
54328;SDS011;40710;51.120;13.136;2022-08-21T10:49:49;5.20;;;1.17;;
54328;SDS011;40710;51.120;13.136;2022-08-21T10:52:30;4.18;;;1.27;;
54328;SDS011;40710;51.120;13.136;2022-08-21T10:55:27;3.25;;;0.80;;
54328;SDS011;40710;51.120;13.136;2022-08-21T10:58:08;3.92;;;0.90;;
54328;SDS011;40710;51.120;13.136;2022-08-21T11:00:48;4.57;;;1.10;;
54328;SDS011;40710;51.120;13.136;2022-08-21T11:03:18;4.25;;;0.85;;
54328;SDS011;40710;51.120;13.136;2022-08-21T11:05:59;2.80;;;1.00;;
54328;SDS011;40710;51.120;13.136;2022-08-21T11:08:34;6.38;;;1.13;;
54328;SDS011;40710;51.120;13.136;2022-08-21T11:11:04;4.03;;;0.90;;
54328;SDS011;40710;51.120;13.136;2022-08-21T11:19:00;5.32;;;0.95;;
54328;SDS011;40710;51.120;13.136;2022-08-21T11:21:38;1.83;;;0.88;;
54328;SDS011;40710;51.120;13.136;2022-08-21T11:24:15;2.45;;;1.00;;
54328;SDS011;40710;51.120;13.136;2022-08-21T11:26:49;3.30;;;0.95;;
54328;SDS011;40710;51.120;13.136;2022-08-21T11:29:27;7.45;;;3.10;;
54328;SDS011;40710;51.120;13.136;2022-08-21T11:43:27;2.13;;;0.73;;
54328;SDS011;40710;51.120;13.136;2022-08-21T11:46:00;3.75;;;0.80;;
54328;SDS011;40710;51.120;13.136;2022-08-21T11:51:27;2.78;;;0.98;;
54328;SDS011;40710;51.120;13.136;2022-08-21T11:59:47;4.15;;;0.90;;
54328;SDS011;40710;51.120;13.136;2022-08-21T12:02:03;2.45;;;0.80;;
54328;SDS011;40710;51.120;13.136;2022-08-21T12:04:42;3.40;;;1.00;;
54328;SDS011;40710;51.120;13.136;2022-08-21T12:07:12;1.95;;;1.00;;
54328;SDS011;40710;51.120;13.136;2022-08-21T12:09:55;4.30;;;1.25;;
54328;SDS011;40710;51.120;13.136;2022-08-21T12:12:26;2.55;;;0.80;;
54328;SDS011;40710;51.120;13.136;2022-08-21T12:15:12;3.75;;;1.23;;
54328;SDS011;40710;51.120;13.136;2022-08-21T12:17:39;2.38;;;0.80;;
54328;SDS011;40710;51.120;13.136;2022-08-21T12:22:47;3.13;;;1.60;;
54328;SDS011;40710;51.120;13.136;2022-08-21T12:25:16;2.83;;;1.20;;
54328;SDS011;40710;51.120;13.136;2022-08-21T12:30:34;2.47;;;0.80;;
54328;SDS011;40710;51.120;13.136;2022-08-21T12:33:03;4.50;;;0.90;;
54328;SDS011;40710;51.120;13.136;2022-08-21T12:35:50;2.08;;;0.90;;
54328;SDS011;40710;51.120;13.136;2022-08-21T12:38:26;1.75;;;0.95;;
54328;SDS011;40710;51.120;13.136;2022-08-21T12:43:21;2.20;;;1.00;;
54328;SDS011;40710;51.120;13.136;2022-08-21T12:45:52;3.55;;;0.93;;
54328;SDS011;40710;51.120;13.136;2022-08-21T12:48:33;3.42;;;0.90;;
54328;SDS011;40710;51.120;13.136;2022-08-21T12:51:15;3.83;;;1.00;;
54328;SDS011;40710;51.120;13.136;2022-08-21T12:53:51;2.50;;;0.93;;
54328;SDS011;40710;51.120;13.136;2022-08-21T12:56:18;3.05;;;0.70;;
54328;SDS011;40710;51.120;13.136;2022-08-21T12:58:55;3.35;;;0.90;;
54328;SDS011;40710;51.120;13.136;2022-08-21T13:01:27;1.70;;;0.80;;
54328;SDS011;40710;51.120;13.136;2022-08-21T13:03:55;1.85;;;0.70;;
54328;SDS011;40710;51.120;13.136;2022-08-21T13:06:24;2.35;;;0.98;;
54328;SDS011;40710;51.120;13.136;2022-08-21T13:08:55;7.35;;;1.27;;
54328;SDS011;40710;51.120;13.136;2022-08-21T13:11:28;6.53;;;1.38;;
54328;SDS011;40710;51.120;13.136;2022-08-21T13:13:52;5.57;;;1.08;;
54328;SDS011;40710;51.120;13.136;2022-08-21T13:16:20;13.55;;;10.05;;
54328;SDS011;40710;51.120;13.136;2022-08-21T13:18:53;4.65;;;1.30;;
54328;SDS011;40710;51.120;13.136;2022-08-21T13:21:20;5.03;;;1.30;;
54328;SDS011;40710;51.120;13.136;2022-08-21T13:23:45;3.42;;;1.40;;
54328;SDS011;40710;51.120;13.136;2022-08-21T13:26:17;3.67;;;1.05;;
54328;SDS011;40710;51.120;13.136;2022-08-21T13:28:43;3.17;;;0.63;;
54328;SDS011;40710;51.120;13.136;2022-08-21T13:31:11;2.05;;;0.85;;
54328;SDS011;40710;51.120;13.136;2022-08-21T13:33:37;3.55;;;1.05;;
54328;SDS011;40710;51.120;13.136;2022-08-21T13:36:11;2.65;;;0.70;;
54328;SDS011;40710;51.120;13.136;2022-08-21T13:38:41;2.55;;;0.80;;
54328;SDS011;40710;51.120;13.136;2022-08-21T13:41:16;3.53;;;0.90;;
54328;SDS011;40710;51.120;13.136;2022-08-21T13:43:48;1.73;;;0.63;;
54328;SDS011;40710;51.120;13.136;2022-08-21T13:46:14;2.45;;;0.95;;
54328;SDS011;40710;51.120;13.136;2022-08-21T13:48:39;2.15;;;0.88;;
54328;SDS011;40710;51.120;13.136;2022-08-21T13:51:03;5.28;;;1.00;;
54328;SDS011;40710;51.120;13.136;2022-08-21T13:55:59;2.47;;;0.80;;
54328;SDS011;40710;51.120;13.136;2022-08-21T13:58:26;2.13;;;0.85;;
54328;SDS011;40710;51.120;13.136;2022-08-21T14:00:53;4.28;;;0.90;;
54328;SDS011;40710;51.120;13.136;2022-08-21T14:03:31;3.22;;;0.85;;
54328;SDS011;40710;51.120;13.136;2022-08-21T14:05:58;0.88;;;0.60;;
54328;SDS011;40710;51.120;13.136;2022-08-21T14:08:28;3.28;;;1.00;;
54328;SDS011;40710;51.120;13.136;2022-08-21T14:10:57;2.30;;;0.70;;
54328;SDS011;40710;51.120;13.136;2022-08-21T14:16:12;4.80;;;0.88;;
54328;SDS011;40710;51.120;13.136;2022-08-21T14:21:29;2.03;;;0.90;;
54328;SDS011;40710;51.120;13.136;2022-08-21T14:24:01;2.20;;;0.80;;
54328;SDS011;40710;51.120;13.136;2022-08-21T14:26:27;2.55;;;0.77;;
54328;SDS011;40710;51.120;13.136;2022-08-21T14:28:51;2.85;;;1.00;;
54328;SDS011;40710;51.120;13.136;2022-08-21T14:31:16;1.35;;;0.73;;
54328;SDS011;40710;51.120;13.136;2022-08-21T14:33:43;3.38;;;1.20;;
54328;SDS011;40710;51.120;13.136;2022-08-21T14:36:08;1.65;;;0.80;;
54328;SDS011;40710;51.120;13.136;2022-08-21T14:38:34;3.97;;;0.88;;
54328;SDS011;40710;51.120;13.136;2022-08-21T14:41:03;2.80;;;0.90;;
54328;SDS011;40710;51.120;13.136;2022-08-21T14:43:32;2.80;;;0.90;;
54328;SDS011;40710;51.120;13.136;2022-08-21T14:45:56;1.35;;;0.70;;
54328;SDS011;40710;51.120;13.136;2022-08-21T14:48:21;3.90;;;1.20;;
54328;SDS011;40710;51.120;13.136;2022-08-21T14:50:45;2.85;;;0.90;;
54328;SDS011;40710;51.120;13.136;2022-08-21T14:53:10;2.30;;;1.33;;
54328;SDS011;40710;51.120;13.136;2022-08-21T14:55:34;12.73;;;1.92;;
54328;SDS011;40710;51.120;13.136;2022-08-21T14:58:20;3.08;;;2.35;;
54328;SDS011;40710;51.120;13.136;2022-08-21T15:00:46;3.20;;;2.92;;
54328;SDS011;40710;51.120;13.136;2022-08-21T15:03:11;4.90;;;4.45;;
54328;SDS011;40710;51.120;13.136;2022-08-21T15:05:35;4.18;;;3.17;;
54328;SDS011;40710;51.120;13.136;2022-08-21T15:08:00;6.55;;;3.17;;
54328;SDS011;40710;51.120;13.136;2022-08-21T15:10:25;5.25;;;3.97;;
54328;SDS011;40710;51.120;13.136;2022-08-21T15:12:49;6.82;;;6.38;;
54328;SDS011;40710;51.120;13.136;2022-08-21T15:15:14;2.47;;;2.28;;
54328;SDS011;40710;51.120;13.136;2022-08-21T15:17:38;6.35;;;4.13;;
54328;SDS011;40710;51.120;13.136;2022-08-21T15:20:03;4.50;;;3.53;;
54328;SDS011;40710;51.120;13.136;2022-08-21T15:22:29;2.78;;;2.25;;
54328;SDS011;40710;51.120;13.136;2022-08-21T15:24:54;2.72;;;2.53;;
54328;SDS011;40710;51.120;13.136;2022-08-21T15:27:18;5.40;;;5.10;;